sensor_id;sensor_type;location;lat;lon;timestamp;temperature;humidity
16578;DHT22;8401;52.528;13.340;2023-02-11T00:01:33;4.20;99.90
16578;DHT22;8401;52.528;13.340;2023-02-11T00:04:00;4.10;99.90
16578;DHT22;8401;52.528;13.340;2023-02-11T00:06:27;4.10;99.90
16578;DHT22;8401;52.528;13.340;2023-02-11T00:08:54;4.10;99.90
16578;DHT22;8401;52.528;13.340;2023-02-11T00:11:21;4.10;99.90
16578;DHT22;8401;52.528;13.340;2023-02-11T00:13:49;4.10;99.90
16578;DHT22;8401;52.528;13.340;2023-02-11T00:16:18;4.00;99.90
16578;DHT22;8401;52.528;13.340;2023-02-11T00:18:44;4.00;99.90
16578;DHT22;8401;52.528;13.340;2023-02-11T00:21:15;4.00;99.90
16578;DHT22;8401;52.528;13.340;2023-02-11T00:23:41;4.00;99.90
16578;DHT22;8401;52.528;13.340;2023-02-11T00:26:15;4.00;99.90
16578;DHT22;8401;52.528;13.340;2023-02-11T00:28:41;4.00;99.90
16578;DHT22;8401;52.528;13.340;2023-02-11T00:31:07;4.00;99.90
16578;DHT22;8401;52.528;13.340;2023-02-11T00:33:33;4.00;99.90
16578;DHT22;8401;52.528;13.340;2023-02-11T00:36:07;4.00;99.90
16578;DHT22;8401;52.528;13.340;2023-02-11T00:38:33;4.10;99.90
16578;DHT22;8401;52.528;13.340;2023-02-11T00:40:58;4.10;99.90
16578;DHT22;8401;52.528;13.340;2023-02-11T00:43:24;4.10;99.90
16578;DHT22;8401;52.528;13.340;2023-02-11T00:45:50;4.20;99.90
16578;DHT22;8401;52.528;13.340;2023-02-11T00:48:16;4.20;99.90
16578;DHT22;8401;52.528;13.340;2023-02-11T00:50:41;4.20;99.90
16578;DHT22;8401;52.528;13.340;2023-02-11T00:53:07;4.20;99.90
16578;DHT22;8401;52.528;13.340;2023-02-11T00:55:33;4.30;99.90
16578;DHT22;8401;52.528;13.340;2023-02-11T00:57:58;4.30;99.90
16578;DHT22;8401;52.528;13.340;2023-02-11T01:00:25;4.30;99.90
16578;DHT22;8401;52.528;13.340;2023-02-11T01:02:51;4.30;99.90
16578;DHT22;8401;52.528;13.340;2023-02-11T01:05:18;4.30;99.90
16578;DHT22;8401;52.528;13.340;2023-02-11T01:07:44;4.30;99.90
16578;DHT22;8401;52.528;13.340;2023-02-11T01:10:10;4.30;99.90
16578;DHT22;8401;52.528;13.340;2023-02-11T01:12:37;4.30;99.90
16578;DHT22;8401;52.528;13.340;2023-02-11T01:15:03;4.40;99.90
16578;DHT22;8401;52.528;13.340;2023-02-11T01:17:29;4.30;99.90
16578;DHT22;8401;52.528;13.340;2023-02-11T01:19:55;4.40;99.90
16578;DHT22;8401;52.528;13.340;2023-02-11T01:22:21;4.40;99.90
16578;DHT22;8401;52.528;13.340;2023-02-11T01:24:46;4.30;99.90
16578;DHT22;8401;52.528;13.340;2023-02-11T01:27:12;4.30;99.90
16578;DHT22;8401;52.528;13.340;2023-02-11T01:29:37;4.30;99.90
16578;DHT22;8401;52.528;13.340;2023-02-11T01:32:03;4.40;99.90
16578;DHT22;8401;52.528;13.340;2023-02-11T01:34:29;4.40;99.90
16578;DHT22;8401;52.528;13.340;2023-02-11T01:36:58;4.40;99.90
16578;DHT22;8401;52.528;13.340;2023-02-11T01:39:25;4.30;99.90
16578;DHT22;8401;52.528;13.340;2023-02-11T01:41:52;4.30;99.90
16578;DHT22;8401;52.528;13.340;2023-02-11T01:44:23;4.30;99.90
16578;DHT22;8401;52.528;13.340;2023-02-11T01:46:50;4.30;99.90
16578;DHT22;8401;52.528;13.340;2023-02-11T01:49:43;4.30;99.90
16578;DHT22;8401;52.528;13.340;2023-02-11T01:52:20;4.30;99.90
16578;DHT22;8401;52.528;13.340;2023-02-11T01:54:49;4.40;99.90
16578;DHT22;8401;52.528;13.340;2023-02-11T01:57:37;4.40;99.90
16578;DHT22;8401;52.528;13.340;2023-02-11T02:03:02;4.50;99.90
16578;DHT22;8401;52.528;13.340;2023-02-11T02:10:47;4.60;99.90
16578;DHT22;8401;52.528;13.340;2023-02-11T02:13:14;4.60;99.90
16578;DHT22;8401;52.528;13.340;2023-02-11T02:16:01;4.60;99.90
16578;DHT22;8401;52.528;13.340;2023-02-11T02:27:22;4.70;99.90
16578;DHT22;8401;52.528;13.340;2023-02-11T02:30:15;4.70;99.90
16578;DHT22;8401;52.528;13.340;2023-02-11T02:35:28;4.70;99.90
16578;DHT22;8401;52.528;13.340;2023-02-11T02:38:43;4.70;99.90
16578;DHT22;8401;52.528;13.340;2023-02-11T02:41:13;4.70;99.90
16578;DHT22;8401;52.528;13.340;2023-02-11T02:43:43;4.70;99.90
16578;DHT22;8401;52.528;13.340;2023-02-11T02:46:11;4.70;99.90
16578;DHT22;8401;52.528;13.340;2023-02-11T02:48:37;4.80;99.90
16578;DHT22;8401;52.528;13.340;2023-02-11T02:59:32;4.70;99.90
16578;DHT22;8401;52.528;13.340;2023-02-11T03:02:23;4.80;99.90
16578;DHT22;8401;52.528;13.340;2023-02-11T03:04:55;4.80;99.90
16578;DHT22;8401;52.528;13.340;2023-02-11T03:07:40;4.80;99.90
16578;DHT22;8401;52.528;13.340;2023-02-11T03:10:31;4.80;99.90
16578;DHT22;8401;52.528;13.340;2023-02-11T03:12:58;4.80;99.90
16578;DHT22;8401;52.528;13.340;2023-02-11T03:15:27;4.80;99.90
16578;DHT22;8401;52.528;13.340;2023-02-11T03:17:57;4.80;99.90
16578;DHT22;8401;52.528;13.340;2023-02-11T03:20:24;4.80;99.90
16578;DHT22;8401;52.528;13.340;2023-02-11T03:23:03;4.80;99.90
16578;DHT22;8401;52.528;13.340;2023-02-11T03:25:36;4.80;99.90
16578;DHT22;8401;52.528;13.340;2023-02-11T03:28:32;4.80;99.90
16578;DHT22;8401;52.528;13.340;2023-02-11T03:31:14;4.90;99.90
16578;DHT22;8401;52.528;13.340;2023-02-11T03:34:12;4.90;99.90
16578;DHT22;8401;52.528;13.340;2023-02-11T03:36:51;4.90;99.90
16578;DHT22;8401;52.528;13.340;2023-02-11T03:39:26;4.90;99.90
16578;DHT22;8401;52.528;13.340;2023-02-11T03:41:55;4.90;99.90
16578;DHT22;8401;52.528;13.340;2023-02-11T03:44:25;4.90;99.90
16578;DHT22;8401;52.528;13.340;2023-02-11T03:46:54;4.90;99.90
16578;DHT22;8401;52.528;13.340;2023-02-11T03:49:22;4.90;99.90
16578;DHT22;8401;52.528;13.340;2023-02-11T03:51:52;4.90;99.90
16578;DHT22;8401;52.528;13.340;2023-02-11T03:54:23;4.90;99.90
16578;DHT22;8401;52.528;13.340;2023-02-11T03:56:54;4.90;99.90
16578;DHT22;8401;52.528;13.340;2023-02-11T03:59:20;4.90;99.90
16578;DHT22;8401;52.528;13.340;2023-02-11T04:01:46;4.90;99.90
16578;DHT22;8401;52.528;13.340;2023-02-11T04:04:12;4.90;99.90
16578;DHT22;8401;52.528;13.340;2023-02-11T04:06:38;4.90;99.90
16578;DHT22;8401;52.528;13.340;2023-02-11T04:09:04;4.80;99.90
16578;DHT22;8401;52.528;13.340;2023-02-11T04:11:30;4.90;99.90
16578;DHT22;8401;52.528;13.340;2023-02-11T04:13:55;4.90;99.90
16578;DHT22;8401;52.528;13.340;2023-02-11T04:16:21;4.90;99.90
16578;DHT22;8401;52.528;13.340;2023-02-11T04:18:47;4.90;99.90
16578;DHT22;8401;52.528;13.340;2023-02-11T04:21:13;4.90;99.90
16578;DHT22;8401;52.528;13.340;2023-02-11T04:23:38;5.00;99.90
16578;DHT22;8401;52.528;13.340;2023-02-11T04:26:04;5.00;99.90
16578;DHT22;8401;52.528;13.340;2023-02-11T04:28:30;5.00;99.90
16578;DHT22;8401;52.528;13.340;2023-02-11T04:30:56;5.00;99.90
16578;DHT22;8401;52.528;13.340;2023-02-11T04:33:22;5.00;99.90
16578;DHT22;8401;52.528;13.340;2023-02-11T04:35:48;5.00;99.90
16578;DHT22;8401;52.528;13.340;2023-02-11T04:38:14;5.00;99.90
16578;DHT22;8401;52.528;13.340;2023-02-11T04:40:39;5.00;99.90
16578;DHT22;8401;52.528;13.340;2023-02-11T04:43:05;5.10;99.90
16578;DHT22;8401;52.528;13.340;2023-02-11T04:45:31;5.00;99.90
16578;DHT22;8401;52.528;13.340;2023-02-11T04:47:57;5.10;99.90
16578;DHT22;8401;52.528;13.340;2023-02-11T04:50:22;5.00;99.90
16578;DHT22;8401;52.528;13.340;2023-02-11T04:52:48;5.00;99.90
16578;DHT22;8401;52.528;13.340;2023-02-11T04:55:14;4.90;99.90
16578;DHT22;8401;52.528;13.340;2023-02-11T04:57:39;4.90;99.90
16578;DHT22;8401;52.528;13.340;2023-02-11T05:00:05;4.90;99.90
16578;DHT22;8401;52.528;13.340;2023-02-11T05:02:32;5.00;99.90
16578;DHT22;8401;52.528;13.340;2023-02-11T05:04:57;5.00;99.90
16578;DHT22;8401;52.528;13.340;2023-02-11T05:07:23;5.00;99.90
16578;DHT22;8401;52.528;13.340;2023-02-11T05:09:49;4.90;99.90
16578;DHT22;8401;52.528;13.340;2023-02-11T05:12:14;4.90;99.90
16578;DHT22;8401;52.528;13.340;2023-02-11T05:14:40;4.90;99.90
16578;DHT22;8401;52.528;13.340;2023-02-11T05:17:06;4.90;99.90
16578;DHT22;8401;52.528;13.340;2023-02-11T05:19:32;4.90;99.90
16578;DHT22;8401;52.528;13.340;2023-02-11T05:21:57;5.00;99.90
16578;DHT22;8401;52.528;13.340;2023-02-11T05:24:23;5.00;99.90
16578;DHT22;8401;52.528;13.340;2023-02-11T05:26:49;4.90;99.90
16578;DHT22;8401;52.528;13.340;2023-02-11T05:29:14;5.00;99.90
16578;DHT22;8401;52.528;13.340;2023-02-11T05:31:40;5.00;99.90
16578;DHT22;8401;52.528;13.340;2023-02-11T05:34:05;5.00;99.90
16578;DHT22;8401;52.528;13.340;2023-02-11T05:36:31;5.00;99.90
16578;DHT22;8401;52.528;13.340;2023-02-11T05:38:57;5.00;99.90
16578;DHT22;8401;52.528;13.340;2023-02-11T05:41:22;4.90;99.90
16578;DHT22;8401;52.528;13.340;2023-02-11T05:43:48;4.90;99.90
16578;DHT22;8401;52.528;13.340;2023-02-11T05:46:16;5.00;99.90
16578;DHT22;8401;52.528;13.340;2023-02-11T05:48:42;5.00;99.90
16578;DHT22;8401;52.528;13.340;2023-02-11T05:51:08;4.90;99.90
16578;DHT22;8401;52.528;13.340;2023-02-11T05:53:33;5.00;99.90
16578;DHT22;8401;52.528;13.340;2023-02-11T05:55:59;5.00;99.90
16578;DHT22;8401;52.528;13.340;2023-02-11T05:58:25;5.00;99.90
16578;DHT22;8401;52.528;13.340;2023-02-11T06:00:51;5.00;99.90
16578;DHT22;8401;52.528;13.340;2023-02-11T06:03:16;5.00;99.90
16578;DHT22;8401;52.528;13.340;2023-02-11T06:05:43;5.00;99.90
16578;DHT22;8401;52.528;13.340;2023-02-11T06:08:09;5.10;99.90
16578;DHT22;8401;52.528;13.340;2023-02-11T06:10:34;5.00;99.90
16578;DHT22;8401;52.528;13.340;2023-02-11T06:13:01;5.00;99.90
16578;DHT22;8401;52.528;13.340;2023-02-11T06:15:27;5.10;99.90
16578;DHT22;8401;52.528;13.340;2023-02-11T06:17:52;5.10;99.90
16578;DHT22;8401;52.528;13.340;2023-02-11T06:20:18;5.10;99.90
16578;DHT22;8401;52.528;13.340;2023-02-11T06:22:44;5.10;99.90
16578;DHT22;8401;52.528;13.340;2023-02-11T06:25:11;5.10;99.90
16578;DHT22;8401;52.528;13.340;2023-02-11T06:27:37;5.10;99.90
16578;DHT22;8401;52.528;13.340;2023-02-11T06:30:04;5.10;99.90
16578;DHT22;8401;52.528;13.340;2023-02-11T06:32:30;5.10;99.90
16578;DHT22;8401;52.528;13.340;2023-02-11T06:34:56;5.10;99.90
16578;DHT22;8401;52.528;13.340;2023-02-11T06:37:21;5.20;99.90
16578;DHT22;8401;52.528;13.340;2023-02-11T06:39:47;5.20;99.90
16578;DHT22;8401;52.528;13.340;2023-02-11T06:42:13;5.20;99.90
16578;DHT22;8401;52.528;13.340;2023-02-11T06:44:38;5.20;99.90
16578;DHT22;8401;52.528;13.340;2023-02-11T06:47:04;5.20;99.90
16578;DHT22;8401;52.528;13.340;2023-02-11T06:49:30;5.20;99.90
16578;DHT22;8401;52.528;13.340;2023-02-11T06:51:55;5.20;99.90
16578;DHT22;8401;52.528;13.340;2023-02-11T06:54:21;5.20;99.90
16578;DHT22;8401;52.528;13.340;2023-02-11T06:56:47;5.20;99.90
16578;DHT22;8401;52.528;13.340;2023-02-11T06:59:17;5.20;99.90
16578;DHT22;8401;52.528;13.340;2023-02-11T07:01:45;5.30;99.90
16578;DHT22;8401;52.528;13.340;2023-02-11T07:04:11;5.30;99.90
16578;DHT22;8401;52.528;13.340;2023-02-11T07:06:39;5.30;99.90
16578;DHT22;8401;52.528;13.340;2023-02-11T07:09:04;5.30;99.90
16578;DHT22;8401;52.528;13.340;2023-02-11T07:11:31;5.30;99.90
16578;DHT22;8401;52.528;13.340;2023-02-11T07:14:02;5.40;99.90
16578;DHT22;8401;52.528;13.340;2023-02-11T07:16:29;5.50;99.90
16578;DHT22;8401;52.528;13.340;2023-02-11T07:18:54;5.50;99.90
16578;DHT22;8401;52.528;13.340;2023-02-11T07:21:21;5.60;99.90
16578;DHT22;8401;52.528;13.340;2023-02-11T07:23:48;5.60;99.90
16578;DHT22;8401;52.528;13.340;2023-02-11T07:26:17;5.60;99.90
16578;DHT22;8401;52.528;13.340;2023-02-11T07:28:43;5.70;99.90
16578;DHT22;8401;52.528;13.340;2023-02-11T07:31:20;5.70;99.90
16578;DHT22;8401;52.528;13.340;2023-02-11T07:33:47;5.70;99.90
16578;DHT22;8401;52.528;13.340;2023-02-11T07:36:14;5.70;99.90
16578;DHT22;8401;52.528;13.340;2023-02-11T07:38:43;5.70;99.90
16578;DHT22;8401;52.528;13.340;2023-02-11T07:41:12;5.80;99.90
16578;DHT22;8401;52.528;13.340;2023-02-11T07:43:39;5.80;99.90
16578;DHT22;8401;52.528;13.340;2023-02-11T07:46:07;5.90;99.90
16578;DHT22;8401;52.528;13.340;2023-02-11T07:48:32;5.90;99.90
16578;DHT22;8401;52.528;13.340;2023-02-11T07:51:25;5.90;99.90
16578;DHT22;8401;52.528;13.340;2023-02-11T07:53:52;5.90;99.90
16578;DHT22;8401;52.528;13.340;2023-02-11T07:56:19;5.90;99.90
16578;DHT22;8401;52.528;13.340;2023-02-11T07:58:45;5.90;99.90
16578;DHT22;8401;52.528;13.340;2023-02-11T08:01:15;5.90;99.90
16578;DHT22;8401;52.528;13.340;2023-02-11T08:03:41;5.90;99.90
16578;DHT22;8401;52.528;13.340;2023-02-11T08:06:12;6.00;99.90
16578;DHT22;8401;52.528;13.340;2023-02-11T08:08:38;5.90;99.90
16578;DHT22;8401;52.528;13.340;2023-02-11T08:11:06;5.90;99.90
16578;DHT22;8401;52.528;13.340;2023-02-11T08:13:32;5.90;99.90
16578;DHT22;8401;52.528;13.340;2023-02-11T08:15:58;5.90;99.90
16578;DHT22;8401;52.528;13.340;2023-02-11T08:18:24;6.00;99.90
16578;DHT22;8401;52.528;13.340;2023-02-11T08:20:49;6.00;99.90
16578;DHT22;8401;52.528;13.340;2023-02-11T08:23:15;6.00;99.90
16578;DHT22;8401;52.528;13.340;2023-02-11T08:25:40;5.90;99.90
16578;DHT22;8401;52.528;13.340;2023-02-11T08:28:06;6.00;99.90
16578;DHT22;8401;52.528;13.340;2023-02-11T08:30:34;6.00;99.90
16578;DHT22;8401;52.528;13.340;2023-02-11T08:32:59;6.00;99.90
16578;DHT22;8401;52.528;13.340;2023-02-11T08:35:25;5.90;99.90
16578;DHT22;8401;52.528;13.340;2023-02-11T08:37:51;6.00;99.90
16578;DHT22;8401;52.528;13.340;2023-02-11T08:40:18;6.00;99.90
16578;DHT22;8401;52.528;13.340;2023-02-11T08:42:44;6.00;99.90
16578;DHT22;8401;52.528;13.340;2023-02-11T08:45:09;6.00;99.90
16578;DHT22;8401;52.528;13.340;2023-02-11T08:47:37;6.00;99.90
16578;DHT22;8401;52.528;13.340;2023-02-11T08:50:03;6.00;99.90
16578;DHT22;8401;52.528;13.340;2023-02-11T08:52:29;6.00;99.90
16578;DHT22;8401;52.528;13.340;2023-02-11T08:54:55;6.00;99.90
16578;DHT22;8401;52.528;13.340;2023-02-11T08:57:21;6.00;99.90
16578;DHT22;8401;52.528;13.340;2023-02-11T08:59:46;6.00;99.90
16578;DHT22;8401;52.528;13.340;2023-02-11T09:02:15;6.00;99.90
16578;DHT22;8401;52.528;13.340;2023-02-11T09:04:40;6.10;99.90
16578;DHT22;8401;52.528;13.340;2023-02-11T09:07:06;6.10;99.90
16578;DHT22;8401;52.528;13.340;2023-02-11T09:09:32;6.10;99.90
16578;DHT22;8401;52.528;13.340;2023-02-11T09:11:57;6.10;99.90
16578;DHT22;8401;52.528;13.340;2023-02-11T09:14:25;6.10;99.90
16578;DHT22;8401;52.528;13.340;2023-02-11T09:16:52;6.10;99.90
16578;DHT22;8401;52.528;13.340;2023-02-11T09:19:18;6.10;99.90
16578;DHT22;8401;52.528;13.340;2023-02-11T09:21:44;6.10;99.90
16578;DHT22;8401;52.528;13.340;2023-02-11T09:24:10;6.10;99.90
16578;DHT22;8401;52.528;13.340;2023-02-11T09:26:37;6.10;99.90
16578;DHT22;8401;52.528;13.340;2023-02-11T09:29:03;6.10;99.90
16578;DHT22;8401;52.528;13.340;2023-02-11T09:31:31;6.10;99.90
16578;DHT22;8401;52.528;13.340;2023-02-11T09:34:00;6.20;99.90
16578;DHT22;8401;52.528;13.340;2023-02-11T09:36:29;6.20;99.90
16578;DHT22;8401;52.528;13.340;2023-02-11T09:38:57;6.20;99.90
16578;DHT22;8401;52.528;13.340;2023-02-11T09:44:00;6.30;99.90
16578;DHT22;8401;52.528;13.340;2023-02-11T09:46:35;6.20;99.90
16578;DHT22;8401;52.528;13.340;2023-02-11T09:49:03;6.30;99.90
16578;DHT22;8401;52.528;13.340;2023-02-11T09:54:02;6.30;99.90
16578;DHT22;8401;52.528;13.340;2023-02-11T09:56:30;6.40;99.90
16578;DHT22;8401;52.528;13.340;2023-02-11T09:58:55;6.40;99.90
16578;DHT22;8401;52.528;13.340;2023-02-11T10:07:10;6.40;99.90
16578;DHT22;8401;52.528;13.340;2023-02-11T10:09:56;6.40;99.90
16578;DHT22;8401;52.528;13.340;2023-02-11T10:20:48;6.40;99.90
16578;DHT22;8401;52.528;13.340;2023-02-11T10:23:25;6.40;99.90
16578;DHT22;8401;52.528;13.340;2023-02-11T10:25:54;6.40;99.90
16578;DHT22;8401;52.528;13.340;2023-02-11T10:28:43;6.30;99.90
16578;DHT22;8401;52.528;13.340;2023-02-11T10:36:11;6.30;99.90
16578;DHT22;8401;52.528;13.340;2023-02-11T10:38:36;6.40;99.90
16578;DHT22;8401;52.528;13.340;2023-02-11T10:41:02;6.40;99.90
16578;DHT22;8401;52.528;13.340;2023-02-11T10:43:29;6.40;99.90
16578;DHT22;8401;52.528;13.340;2023-02-11T10:45:57;6.50;99.90
16578;DHT22;8401;52.528;13.340;2023-02-11T10:53:38;6.50;99.90
16578;DHT22;8401;52.528;13.340;2023-02-11T10:56:06;6.40;99.90
16578;DHT22;8401;52.528;13.340;2023-02-11T10:58:42;6.50;99.90
16578;DHT22;8401;52.528;13.340;2023-02-11T11:01:09;6.50;99.90
16578;DHT22;8401;52.528;13.340;2023-02-11T11:03:39;6.50;99.90
16578;DHT22;8401;52.528;13.340;2023-02-11T11:06:10;6.50;99.90
16578;DHT22;8401;52.528;13.340;2023-02-11T11:08:43;6.50;99.90
16578;DHT22;8401;52.528;13.340;2023-02-11T11:11:15;6.50;99.90
16578;DHT22;8401;52.528;13.340;2023-02-11T11:14:01;6.50;99.90
16578;DHT22;8401;52.528;13.340;2023-02-11T11:16:34;6.50;99.90
16578;DHT22;8401;52.528;13.340;2023-02-11T11:24:18;6.50;99.90
16578;DHT22;8401;52.528;13.340;2023-02-11T11:26:55;6.50;99.90
16578;DHT22;8401;52.528;13.340;2023-02-11T11:29:33;6.50;99.90
16578;DHT22;8401;52.528;13.340;2023-02-11T11:32:10;6.50;99.90
16578;DHT22;8401;52.528;13.340;2023-02-11T11:34:39;6.50;99.90
16578;DHT22;8401;52.528;13.340;2023-02-11T11:37:19;6.50;99.90
16578;DHT22;8401;52.528;13.340;2023-02-11T11:42:41;6.50;99.90
16578;DHT22;8401;52.528;13.340;2023-02-11T11:48:13;6.60;99.90
16578;DHT22;8401;52.528;13.340;2023-02-11T11:51:06;6.60;99.90
16578;DHT22;8401;52.528;13.340;2023-02-11T11:54:11;6.60;99.90
16578;DHT22;8401;52.528;13.340;2023-02-11T11:56:52;6.60;99.90
16578;DHT22;8401;52.528;13.340;2023-02-11T11:59:21;6.70;99.90
16578;DHT22;8401;52.528;13.340;2023-02-11T12:04:39;6.70;99.90
16578;DHT22;8401;52.528;13.340;2023-02-11T12:18:46;6.90;99.90
16578;DHT22;8401;52.528;13.340;2023-02-11T12:21:43;6.90;99.90
16578;DHT22;8401;52.528;13.340;2023-02-11T12:27:17;7.00;99.90
16578;DHT22;8401;52.528;13.340;2023-02-11T12:33:32;7.00;99.90
16578;DHT22;8401;52.528;13.340;2023-02-11T12:39:07;7.00;99.90
16578;DHT22;8401;52.528;13.340;2023-02-11T12:44:42;7.10;99.90
16578;DHT22;8401;52.528;13.340;2023-02-11T12:50:33;7.10;99.90
16578;DHT22;8401;52.528;13.340;2023-02-11T12:55:23;7.10;99.90
16578;DHT22;8401;52.528;13.340;2023-02-11T12:57:50;7.10;99.90
16578;DHT22;8401;52.528;13.340;2023-02-11T13:00:22;7.20;99.90
16578;DHT22;8401;52.528;13.340;2023-02-11T13:02:59;7.20;99.90
16578;DHT22;8401;52.528;13.340;2023-02-11T13:05:48;7.20;99.90
16578;DHT22;8401;52.528;13.340;2023-02-11T13:08:32;7.20;99.90
16578;DHT22;8401;52.528;13.340;2023-02-11T13:11:06;7.20;99.90
16578;DHT22;8401;52.528;13.340;2023-02-11T13:13:46;7.20;99.90
16578;DHT22;8401;52.528;13.340;2023-02-11T13:16:19;7.20;99.90
16578;DHT22;8401;52.528;13.340;2023-02-11T13:19:20;7.20;99.90
16578;DHT22;8401;52.528;13.340;2023-02-11T13:22:12;7.20;99.90
16578;DHT22;8401;52.528;13.340;2023-02-11T13:38:02;7.20;99.90
16578;DHT22;8401;52.528;13.340;2023-02-11T13:40:38;7.20;99.90
16578;DHT22;8401;52.528;13.340;2023-02-11T13:43:10;7.20;99.90
16578;DHT22;8401;52.528;13.340;2023-02-11T13:45:48;7.20;99.90
16578;DHT22;8401;52.528;13.340;2023-02-11T13:48:38;7.30;99.90
16578;DHT22;8401;52.528;13.340;2023-02-11T13:51:06;7.30;99.90
16578;DHT22;8401;52.528;13.340;2023-02-11T13:53:51;7.30;99.90
16578;DHT22;8401;52.528;13.340;2023-02-11T13:56:36;7.20;99.90
16578;DHT22;8401;52.528;13.340;2023-02-11T14:10:53;7.30;99.90
16578;DHT22;8401;52.528;13.340;2023-02-11T14:13:23;7.30;99.90
16578;DHT22;8401;52.528;13.340;2023-02-11T14:16:19;7.40;99.90
16578;DHT22;8401;52.528;13.340;2023-02-11T14:23:43;7.30;99.90
16578;DHT22;8401;52.528;13.340;2023-02-11T14:41:13;7.30;99.90
16578;DHT22;8401;52.528;13.340;2023-02-11T14:43:44;7.20;99.90
16578;DHT22;8401;52.528;13.340;2023-02-11T14:46:14;7.30;99.90
16578;DHT22;8401;52.528;13.340;2023-02-11T14:48:45;7.20;99.90
16578;DHT22;8401;52.528;13.340;2023-02-11T14:51:20;7.30;99.90
16578;DHT22;8401;52.528;13.340;2023-02-11T14:53:51;7.20;99.90
16578;DHT22;8401;52.528;13.340;2023-02-11T14:56:20;7.30;99.90
16578;DHT22;8401;52.528;13.340;2023-02-11T14:58:48;7.30;99.90
16578;DHT22;8401;52.528;13.340;2023-02-11T15:01:31;7.30;99.90
16578;DHT22;8401;52.528;13.340;2023-02-11T15:03:58;7.30;99.90
16578;DHT22;8401;52.528;13.340;2023-02-11T15:06:47;7.30;99.90
16578;DHT22;8401;52.528;13.340;2023-02-11T15:09:23;7.30;99.90
16578;DHT22;8401;52.528;13.340;2023-02-11T15:11:55;7.30;99.90
16578;DHT22;8401;52.528;13.340;2023-02-11T15:16:47;7.30;99.90
16578;DHT22;8401;52.528;13.340;2023-02-11T15:19:22;7.20;99.90
16578;DHT22;8401;52.528;13.340;2023-02-11T15:21:49;7.30;99.90
16578;DHT22;8401;52.528;13.340;2023-02-11T15:24:28;7.30;99.90
16578;DHT22;8401;52.528;13.340;2023-02-11T15:27:12;7.30;99.90
16578;DHT22;8401;52.528;13.340;2023-02-11T15:29:48;7.30;99.90
16578;DHT22;8401;52.528;13.340;2023-02-11T15:32:20;7.30;99.90
16578;DHT22;8401;52.528;13.340;2023-02-11T15:34:48;7.30;99.90
16578;DHT22;8401;52.528;13.340;2023-02-11T15:37:19;7.30;99.90
16578;DHT22;8401;52.528;13.340;2023-02-11T15:39:45;7.30;99.90
16578;DHT22;8401;52.528;13.340;2023-02-11T15:42:25;7.30;99.90
16578;DHT22;8401;52.528;13.340;2023-02-11T15:47:48;7.30;99.90
16578;DHT22;8401;52.528;13.340;2023-02-11T15:50:26;7.30;99.90
16578;DHT22;8401;52.528;13.340;2023-02-11T15:52:55;7.30;99.90
16578;DHT22;8401;52.528;13.340;2023-02-11T15:55:21;7.30;99.90
16578;DHT22;8401;52.528;13.340;2023-02-11T15:57:55;7.30;99.90
16578;DHT22;8401;52.528;13.340;2023-02-11T16:00:23;7.30;99.90
16578;DHT22;8401;52.528;13.340;2023-02-11T16:02:51;7.30;99.90
16578;DHT22;8401;52.528;13.340;2023-02-11T16:07:50;7.30;99.90
16578;DHT22;8401;52.528;13.340;2023-02-11T16:13:02;7.30;99.90
16578;DHT22;8401;52.528;13.340;2023-02-11T16:18:14;7.30;99.90
16578;DHT22;8401;52.528;13.340;2023-02-11T16:20:46;7.30;99.90
16578;DHT22;8401;52.528;13.340;2023-02-11T16:23:21;7.30;99.90
16578;DHT22;8401;52.528;13.340;2023-02-11T16:25:46;7.30;99.90
16578;DHT22;8401;52.528;13.340;2023-02-11T16:28:14;7.30;99.90
16578;DHT22;8401;52.528;13.340;2023-02-11T16:30:41;7.30;99.90
16578;DHT22;8401;52.528;13.340;2023-02-11T16:33:10;7.30;99.90
16578;DHT22;8401;52.528;13.340;2023-02-11T16:35:35;7.30;99.90
16578;DHT22;8401;52.528;13.340;2023-02-11T16:38:02;7.30;99.90
16578;DHT22;8401;52.528;13.340;2023-02-11T16:40:27;7.30;99.90
16578;DHT22;8401;52.528;13.340;2023-02-11T16:42:53;7.30;99.90
16578;DHT22;8401;52.528;13.340;2023-02-11T16:45:19;7.30;99.90
16578;DHT22;8401;52.528;13.340;2023-02-11T16:47:44;7.30;99.90
16578;DHT22;8401;52.528;13.340;2023-02-11T16:50:22;7.30;99.90
16578;DHT22;8401;52.528;13.340;2023-02-11T16:52:48;7.30;99.90
16578;DHT22;8401;52.528;13.340;2023-02-11T16:55:14;7.30;99.90
16578;DHT22;8401;52.528;13.340;2023-02-11T16:57:40;7.30;99.90
16578;DHT22;8401;52.528;13.340;2023-02-11T17:00:06;7.30;99.90
16578;DHT22;8401;52.528;13.340;2023-02-11T17:02:33;7.30;99.90
16578;DHT22;8401;52.528;13.340;2023-02-11T17:05:02;7.30;99.90
16578;DHT22;8401;52.528;13.340;2023-02-11T17:07:28;7.40;99.90
16578;DHT22;8401;52.528;13.340;2023-02-11T17:09:54;7.40;99.90
16578;DHT22;8401;52.528;13.340;2023-02-11T17:12:20;7.40;99.90
16578;DHT22;8401;52.528;13.340;2023-02-11T17:14:46;7.40;99.90
16578;DHT22;8401;52.528;13.340;2023-02-11T17:17:12;7.40;99.90
16578;DHT22;8401;52.528;13.340;2023-02-11T17:19:38;7.40;99.90
16578;DHT22;8401;52.528;13.340;2023-02-11T17:22:04;7.40;99.90
16578;DHT22;8401;52.528;13.340;2023-02-11T17:24:30;7.40;99.90
16578;DHT22;8401;52.528;13.340;2023-02-11T17:26:56;7.40;99.90
16578;DHT22;8401;52.528;13.340;2023-02-11T17:29:23;7.40;99.90
16578;DHT22;8401;52.528;13.340;2023-02-11T17:31:50;7.40;99.90
16578;DHT22;8401;52.528;13.340;2023-02-11T17:34:17;7.40;99.90
16578;DHT22;8401;52.528;13.340;2023-02-11T17:36:43;7.40;99.90
16578;DHT22;8401;52.528;13.340;2023-02-11T17:39:09;7.40;99.90
16578;DHT22;8401;52.528;13.340;2023-02-11T17:41:36;7.40;99.90
16578;DHT22;8401;52.528;13.340;2023-02-11T17:44:03;7.40;99.90
16578;DHT22;8401;52.528;13.340;2023-02-11T17:46:28;7.40;99.90
16578;DHT22;8401;52.528;13.340;2023-02-11T17:48:56;7.40;99.90
16578;DHT22;8401;52.528;13.340;2023-02-11T17:51:31;7.40;99.90
16578;DHT22;8401;52.528;13.340;2023-02-11T17:54:00;7.40;99.90
16578;DHT22;8401;52.528;13.340;2023-02-11T17:56:26;7.40;99.90
16578;DHT22;8401;52.528;13.340;2023-02-11T17:58:51;7.40;99.90
16578;DHT22;8401;52.528;13.340;2023-02-11T18:01:18;7.40;99.90
16578;DHT22;8401;52.528;13.340;2023-02-11T18:03:44;7.40;99.90
16578;DHT22;8401;52.528;13.340;2023-02-11T18:06:10;7.40;99.90
16578;DHT22;8401;52.528;13.340;2023-02-11T18:08:37;7.50;99.90
16578;DHT22;8401;52.528;13.340;2023-02-11T18:11:03;7.50;99.90
16578;DHT22;8401;52.528;13.340;2023-02-11T18:13:29;7.50;99.90
16578;DHT22;8401;52.528;13.340;2023-02-11T18:16:01;7.50;99.90
16578;DHT22;8401;52.528;13.340;2023-02-11T18:18:26;7.50;99.90
16578;DHT22;8401;52.528;13.340;2023-02-11T18:20:59;7.50;99.90
16578;DHT22;8401;52.528;13.340;2023-02-11T18:23:26;7.40;99.90
16578;DHT22;8401;52.528;13.340;2023-02-11T18:25:52;7.40;99.90
16578;DHT22;8401;52.528;13.340;2023-02-11T18:28:18;7.50;99.90
16578;DHT22;8401;52.528;13.340;2023-02-11T18:30:43;7.50;99.90
16578;DHT22;8401;52.528;13.340;2023-02-11T18:33:09;7.40;99.90
16578;DHT22;8401;52.528;13.340;2023-02-11T18:35:42;7.50;99.90
16578;DHT22;8401;52.528;13.340;2023-02-11T18:38:08;7.40;99.90
16578;DHT22;8401;52.528;13.340;2023-02-11T18:40:37;7.50;99.90